Time;durP1;ratioP1;P1;durP2;ratioP2;P2;SDS_P1;SDS_P2;PMS_P1;PMS_P2;Temp;Humidity;BMP_temperature;BMP_pressure;BME280_temperature;BME280_humidity;BME280_pressure;Samples;Min_cycle;Max_cycle;Signal;HPM_P1;HPM_P2
2024/01/27 00:01:43;;;;;;;4.75;1.70;;;21.10;34.60;;;;;;5114601;28;20051;-60
2024/01/27 00:04:09;;;;;;;5.00;1.65;;;21.10;34.60;;;;;;5113972;28;20104;-59
2024/01/27 00:06:35;;;;;;;3.28;1.50;;;21.00;34.50;;;;;;5113751;28;20055;-61
2024/01/27 00:09:01;;;;;;;3.40;1.45;;;21.00;34.60;;;;;;5113654;28;20059;-60
2024/01/27 00:11:27;;;;;;;4.55;1.70;;;21.00;34.60;;;;;;5096857;28;20036;-60
2024/01/27 00:13:53;;;;;;;5.05;1.60;;;21.00;34.60;;;;;;5113298;28;20149;-59
2024/01/27 00:16:18;;;;;;;4.93;2.00;;;21.00;34.50;;;;;;5113732;28;20362;-58
2024/01/27 00:18:45;;;;;;;3.75;1.60;;;21.00;34.60;;;;;;5113912;28;20032;-60
2024/01/27 00:21:11;;;;;;;3.15;1.88;;;21.00;34.60;;;;;;5095776;28;20046;-57
2024/01/27 00:23:37;;;;;;;3.72;1.55;;;21.00;34.60;;;;;;5113594;28;20027;-59
2024/01/27 00:26:04;;;;;;;4.32;1.58;;;20.90;34.50;;;;;;5095795;28;20028;-59
2024/01/27 00:28:30;;;;;;;3.80;1.52;;;21.00;34.60;;;;;;5113965;28;20408;-58
2024/01/27 00:30:56;;;;;;;4.00;1.65;;;20.90;34.50;;;;;;5113595;28;20024;-59
2024/01/27 00:33:22;;;;;;;4.60;1.67;;;20.90;34.50;;;;;;5095610;28;20070;-60
2024/01/27 00:35:48;;;;;;;2.25;1.30;;;20.90;34.50;;;;;;5123986;27;20024;-60
2024/01/27 00:38:14;;;;;;;3.17;1.38;;;20.90;34.50;;;;;;5111021;28;20026;-58
2024/01/27 00:40:40;;;;;;;3.47;1.60;;;20.90;34.50;;;;;;5113844;28;20059;-58
2024/01/27 00:43:06;;;;;;;3.45;1.52;;;20.90;34.50;;;;;;5113334;28;20085;-60
2024/01/27 00:45:32;;;;;;;3.55;1.65;;;20.90;34.60;;;;;;5113041;28;20085;-56
2024/01/27 00:47:58;;;;;;;4.95;1.88;;;20.90;34.60;;;;;;5114010;28;20023;-59
2024/01/27 00:50:24;;;;;;;5.60;1.30;;;20.90;34.60;;;;;;5095664;28;20114;-60
2024/01/27 00:52:49;;;;;;;3.63;1.58;;;20.90;34.60;;;;;;5113277;28;20118;-59
2024/01/27 00:55:15;;;;;;;3.72;1.45;;;20.90;34.60;;;;;;5095555;28;20411;-60
2024/01/27 00:57:41;;;;;;;3.30;1.40;;;20.90;34.70;;;;;;5113049;28;20438;-58
2024/01/27 01:00:09;;;;;;;3.03;1.40;;;20.80;34.60;;;;;;5114305;28;20107;-59
2024/01/27 01:02:35;;;;;;;4.20;1.67;;;20.80;34.60;;;;;;5113623;28;20323;-59
2024/01/27 01:05:03;;;;;;;4.65;2.03;;;20.80;34.60;;;;;;5113357;28;20038;-59
2024/01/27 01:07:30;;;;;;;3.35;1.60;;;20.80;34.60;;;;;;5112878;28;20023;-60
2024/01/27 01:09:55;;;;;;;3.90;1.58;;;20.80;34.60;;;;;;5113465;28;20139;-57
2024/01/27 01:12:21;;;;;;;4.65;1.50;;;20.80;34.60;;;;;;5113582;28;20405;-59
2024/01/27 01:14:47;;;;;;;4.35;1.73;;;20.80;34.60;;;;;;5113010;28;20339;-61
2024/01/27 01:17:13;;;;;;;3.08;1.52;;;20.80;34.60;;;;;;5111891;28;20102;-60
2024/01/27 01:19:41;;;;;;;3.95;1.65;;;20.80;34.60;;;;;;5113337;28;20031;-58
2024/01/27 01:22:07;;;;;;;3.10;1.50;;;20.80;34.60;;;;;;5113260;28;20028;-59
2024/01/27 01:24:33;;;;;;;3.47;1.58;;;20.70;34.60;;;;;;5112808;28;20114;-61
2024/01/27 01:26:59;;;;;;;3.10;1.60;;;20.70;34.60;;;;;;5094534;28;20028;-60
2024/01/27 01:29:25;;;;;;;3.40;1.73;;;20.70;34.60;;;;;;5112641;28;20355;-58
2024/01/27 01:31:52;;;;;;;4.35;1.98;;;20.70;34.50;;;;;;5112576;28;20023;-61
2024/01/27 01:34:18;;;;;;;3.42;1.50;;;20.70;34.50;;;;;;5112220;28;20031;-57
2024/01/27 01:36:45;;;;;;;3.20;1.30;;;20.70;34.50;;;;;;5112359;28;20034;-60
2024/01/27 01:39:12;;;;;;;3.22;1.50;;;20.70;34.50;;;;;;5112684;28;20020;-57
2024/01/27 01:41:38;;;;;;;2.35;1.20;;;20.70;34.50;;;;;;5112651;28;20056;-60
2024/01/27 01:44:04;;;;;;;3.95;1.77;;;20.60;34.50;;;;;;5110069;28;20435;-59
2024/01/27 01:46:30;;;;;;;3.83;1.60;;;20.60;34.50;;;;;;5112660;28;20035;-58
2024/01/27 01:48:56;;;;;;;3.20;1.45;;;20.60;34.50;;;;;;5111607;28;20520;-60
2024/01/27 01:51:22;;;;;;;3.50;1.33;;;20.60;34.50;;;;;;5112582;28;20034;-60
2024/01/27 01:53:49;;;;;;;3.00;1.38;;;20.60;34.50;;;;;;5112350;28;20016;-58
2024/01/27 01:56:18;;;;;;;3.28;1.40;;;20.60;34.50;;;;;;5112570;28;20103;-59
2024/01/27 01:58:44;;;;;;;3.58;1.52;;;20.60;34.40;;;;;;5112309;28;20420;-59
2024/01/27 02:01:10;;;;;;;4.53;1.52;;;20.60;34.40;;;;;;5113095;28;20035;-58
2024/01/27 02:03:36;;;;;;;3.63;1.45;;;20.60;34.50;;;;;;5112073;28;20032;-59
2024/01/27 02:06:02;;;;;;;2.88;1.50;;;20.60;34.50;;;;;;5112635;28;20050;-59
2024/01/27 02:08:28;;;;;;;2.83;1.45;;;20.60;34.50;;;;;;5111827;28;20055;-59
2024/01/27 02:10:54;;;;;;;2.85;1.17;;;20.60;34.50;;;;;;5112418;28;20023;-59
2024/01/27 02:13:21;;;;;;;2.38;1.25;;;20.60;34.50;;;;;;5112579;28;20028;-59
2024/01/27 02:15:48;;;;;;;3.53;1.58;;;20.50;34.40;;;;;;5112726;28;20042;-59
2024/01/27 02:18:14;;;;;;;2.08;1.10;;;20.50;34.40;;;;;;5112027;28;20020;-59
2024/01/27 02:20:40;;;;;;;2.70;1.38;;;20.50;34.40;;;;;;5112592;28;20026;-59
2024/01/27 02:23:06;;;;;;;2.22;1.23;;;20.50;34.40;;;;;;5112581;28;20426;-58
2024/01/27 02:25:33;;;;;;;3.33;1.35;;;20.50;34.40;;;;;;5112496;28;20027;-60
2024/01/27 02:27:59;;;;;;;3.03;1.40;;;20.50;34.40;;;;;;5112476;28;20055;-60
2024/01/27 02:30:25;;;;;;;5.90;1.70;;;20.50;34.40;;;;;;5112120;28;20039;-58
2024/01/27 02:32:51;;;;;;;3.38;1.55;;;20.50;34.40;;;;;;5112606;28;20319;-59
2024/01/27 02:35:17;;;;;;;3.95;1.55;;;20.50;34.40;;;;;;5112038;28;20042;-60
2024/01/27 02:37:43;;;;;;;3.80;1.45;;;20.50;34.40;;;;;;5111766;28;20027;-59
2024/01/27 02:40:09;;;;;;;3.30;1.50;;;20.50;34.40;;;;;;5113179;28;20646;-60
2024/01/27 02:42:36;;;;;;;3.65;1.77;;;20.50;34.40;;;;;;5115714;28;20093;-56
2024/01/27 02:45:03;;;;;;;4.60;1.40;;;20.40;34.30;;;;;;5115897;28;20042;-59
2024/01/27 02:47:29;;;;;;;5.25;2.00;;;20.40;34.30;;;;;;5116012;28;20027;-59
2024/01/27 02:49:55;;;;;;;2.00;1.33;;;20.40;34.30;;;;;;5097487;28;20054;-58
2024/01/27 02:52:20;;;;;;;3.08;1.10;;;20.40;34.30;;;;;;5115190;28;20028;-60
2024/01/27 02:54:47;;;;;;;2.95;1.38;;;20.40;34.30;;;;;;5115721;28;20023;-60
2024/01/27 02:57:13;;;;;;;2.78;1.38;;;20.40;34.30;;;;;;5115448;28;20023;-59
2024/01/27 02:59:39;;;;;;;3.38;1.67;;;20.40;34.30;;;;;;5116344;28;20025;-60
2024/01/27 03:02:05;;;;;;;3.88;1.30;;;20.40;34.30;;;;;;5113311;28;20098;-60
2024/01/27 03:04:31;;;;;;;3.47;1.38;;;20.40;34.30;;;;;;5115507;28;20085;-60
2024/01/27 03:06:57;;;;;;;3.15;1.58;;;20.40;34.30;;;;;;5115887;28;20354;-60
2024/01/27 03:09:23;;;;;;;3.03;1.35;;;20.40;34.30;;;;;;5115292;28;20166;-61
2024/01/27 03:11:49;;;;;;;4.32;1.55;;;20.40;34.30;;;;;;5115414;28;20083;-60
2024/01/27 03:14:15;;;;;;;5.07;1.35;;;20.40;34.40;;;;;;5115873;28;20023;-59
2024/01/27 03:16:40;;;;;;;3.22;1.30;;;20.30;34.30;;;;;;5114249;28;20059;-58
2024/01/27 03:19:06;;;;;;;3.42;1.27;;;20.30;34.30;;;;;;5115362;28;20031;-58
2024/01/27 03:21:32;;;;;;;2.88;1.60;;;20.30;34.30;;;;;;5115204;28;20027;-58
2024/01/27 03:23:58;;;;;;;3.85;1.55;;;20.30;34.30;;;;;;5115133;28;20037;-58
2024/01/27 03:26:24;;;;;;;3.33;1.55;;;20.30;34.30;;;;;;5115072;28;20031;-56
2024/01/27 03:28:50;;;;;;;2.20;1.10;;;20.30;34.30;;;;;;5115197;28;20040;-59
2024/01/27 03:31:16;;;;;;;3.38;1.23;;;20.30;34.30;;;;;;5114914;28;20027;-58
2024/01/27 03:33:42;;;;;;;3.15;1.05;;;20.30;34.20;;;;;;5115179;28;20319;-58
2024/01/27 03:36:12;;;;;;;3.40;1.55;;;20.30;34.30;;;;;;5114953;28;20023;-59
2024/01/27 03:38:40;;;;;;;3.17;1.20;;;20.30;34.30;;;;;;5114573;28;20035;-62
2024/01/27 03:41:06;;;;;;;2.15;1.05;;;20.30;34.30;;;;;;5112064;28;20051;-58
2024/01/27 03:43:33;;;;;;;2.53;1.30;;;20.30;34.30;;;;;;5114711;28;20035;-58
2024/01/27 03:46:00;;;;;;;3.47;1.52;;;20.30;34.30;;;;;;5113789;28;20051;-60
2024/01/27 03:48:26;;;;;;;3.35;1.58;;;20.20;34.20;;;;;;5114665;28;20024;-59
2024/01/27 03:50:52;;;;;;;3.22;1.38;;;20.30;34.30;;;;;;5113981;28;20338;-57
2024/01/27 03:53:17;;;;;;;2.08;1.23;;;20.30;34.90;;;;;;5096310;28;20126;-58
2024/01/27 03:55:43;;;;;;;3.08;1.38;;;20.20;34.20;;;;;;5114590;28;20054;-58
2024/01/27 03:58:09;;;;;;;4.63;1.27;;;20.20;34.20;;;;;;5114304;28;20070;-60
2024/01/27 04:00:35;;;;;;;3.67;1.35;;;20.20;34.20;;;;;;5114868;28;20077;-58
2024/01/27 04:03:01;;;;;;;3.50;1.55;;;20.20;34.20;;;;;;5112478;28;20403;-58
2024/01/27 04:05:28;;;;;;;2.90;1.30;;;20.20;34.20;;;;;;5114434;28;20028;-60
2024/01/27 04:07:53;;;;;;;3.13;1.48;;;20.20;34.20;;;;;;5114276;28;20109;-59
2024/01/27 04:10:20;;;;;;;2.55;1.08;;;20.20;34.20;;;;;;5114213;28;20454;-60
2024/01/27 04:12:46;;;;;;;3.25;1.33;;;20.20;34.10;;;;;;5114330;28;20192;-60
2024/01/27 04:15:11;;;;;;;2.70;1.25;;;20.20;34.10;;;;;;5114363;28;20088;-59
2024/01/27 04:17:38;;;;;;;5.03;1.27;;;20.20;34.10;;;;;;5113705;28;20030;-60
2024/01/27 04:20:04;;;;;;;3.35;1.35;;;20.20;34.10;;;;;;5114478;28;20035;-61
2024/01/27 04:22:30;;;;;;;4.00;1.30;;;20.10;34.10;;;;;;5113865;28;20027;-58
2024/01/27 04:24:56;;;;;;;2.65;1.15;;;20.10;34.00;;;;;;5114089;28;20019;-59
2024/01/27 04:27:22;;;;;;;3.08;1.20;;;20.10;34.00;;;;;;5113904;28;20020;-59
2024/01/27 04:29:48;;;;;;;3.05;1.45;;;20.10;34.10;;;;;;5113774;28;20249;-58
2024/01/27 04:32:14;;;;;;;1.95;1.10;;;20.10;34.00;;;;;;5114198;28;20099;-59
2024/01/27 04:34:40;;;;;;;2.17;1.10;;;20.10;34.00;;;;;;5113911;28;20019;-58
2024/01/27 04:37:06;;;;;;;3.55;1.45;;;20.10;34.00;;;;;;5114062;28;20027;-59
2024/01/27 04:39:31;;;;;;;4.07;1.45;;;20.10;34.00;;;;;;5113270;28;20020;-59
2024/01/27 04:41:57;;;;;;;5.10;1.38;;;20.10;34.00;;;;;;5113464;28;20039;-57
2024/01/27 04:44:23;;;;;;;2.42;1.20;;;20.10;34.10;;;;;;5113561;28;20419;-58
2024/01/27 04:46:49;;;;;;;3.25;1.40;;;20.10;34.00;;;;;;5114127;28;20016;-59
2024/01/27 04:49:15;;;;;;;3.72;1.42;;;20.10;34.00;;;;;;5113157;28;20174;-59
2024/01/27 04:51:41;;;;;;;2.50;1.15;;;20.10;34.00;;;;;;5113591;28;20034;-57
2024/01/27 04:54:08;;;;;;;4.03;1.20;;;20.10;34.00;;;;;;5113333;28;20027;-58
2024/01/27 04:56:34;;;;;;;4.03;1.40;;;20.10;34.00;;;;;;5113239;28;20396;-57
2024/01/27 04:58:59;;;;;;;2.22;1.20;;;20.10;34.00;;;;;;5113903;28;20016;-61
2024/01/27 05:01:25;;;;;;;2.22;1.10;;;20.00;34.00;;;;;;5113789;28;20134;-59
2024/01/27 05:03:51;;;;;;;3.65;1.30;;;20.00;34.00;;;;;;5112881;28;20019;-59
2024/01/27 05:06:17;;;;;;;2.85;1.38;;;20.00;34.00;;;;;;5095932;28;20114;-58
2024/01/27 05:08:43;;;;;;;2.33;1.20;;;20.00;34.00;;;;;;5094587;28;20035;-58
2024/01/27 05:11:10;;;;;;;3.92;1.10;;;20.00;34.00;;;;;;5113279;28;20041;-60
2024/01/27 05:13:37;;;;;;;3.72;1.48;;;20.00;34.00;;;;;;5092753;28;20019;-59
2024/01/27 05:16:03;;;;;;;2.33;1.13;;;20.00;34.00;;;;;;5112818;28;20450;-58
2024/01/27 05:18:29;;;;;;;4.28;1.80;;;20.00;33.90;;;;;;5095698;28;20362;-56
2024/01/27 05:20:55;;;;;;;2.92;1.30;;;20.00;33.90;;;;;;5114318;28;20034;-60
2024/01/27 05:23:21;;;;;;;3.30;1.48;;;20.00;34.00;;;;;;5114598;28;20030;-59
2024/01/27 05:25:46;;;;;;;3.95;1.77;;;20.00;34.00;;;;;;5114120;28;20015;-59
2024/01/27 05:28:12;;;;;;;3.75;1.50;;;20.00;34.00;;;;;;5114003;28;20038;-58
2024/01/27 05:30:38;;;;;;;4.60;1.80;;;20.00;34.00;;;;;;5114341;28;20342;-58
2024/01/27 05:33:04;;;;;;;4.40;1.70;;;20.00;34.00;;;;;;5113877;28;20120;-57
2024/01/27 05:35:29;;;;;;;3.38;1.50;;;20.00;34.00;;;;;;5113861;28;20043;-58
2024/01/27 05:37:56;;;;;;;2.92;1.40;;;20.00;34.00;;;;;;5114286;28;20022;-58
2024/01/27 05:40:22;;;;;;;5.07;1.85;;;19.90;33.90;;;;;;5114040;28;20077;-59
2024/01/27 05:42:49;;;;;;;4.15;1.48;;;19.90;33.90;;;;;;5114234;28;20135;-59
2024/01/27 05:45:15;;;;;;;4.72;1.77;;;19.90;33.90;;;;;;5114206;28;20020;-59
2024/01/27 05:47:41;;;;;;;4.22;1.70;;;19.90;33.90;;;;;;5114173;28;20320;-58
2024/01/27 05:50:08;;;;;;;4.05;1.85;;;19.90;33.90;;;;;;5113170;28;20042;-59
2024/01/27 05:52:36;;;;;;;3.65;1.40;;;19.90;33.90;;;;;;5113859;28;20024;-58
2024/01/27 05:55:03;;;;;;;3.33;1.42;;;19.90;33.90;;;;;;5114156;28;20028;-58
2024/01/27 05:57:28;;;;;;;5.00;1.65;;;19.90;33.90;;;;;;5095924;28;20032;-60
2024/01/27 05:59:54;;;;;;;3.15;1.67;;;19.90;33.90;;;;;;5114320;28;20027;-61
2024/01/27 06:02:20;;;;;;;5.03;1.80;;;19.90;33.90;;;;;;5095568;28;20370;-58
2024/01/27 06:04:46;;;;;;;3.80;1.35;;;19.90;33.90;;;;;;5113586;28;20055;-58
2024/01/27 06:07:12;;;;;;;4.05;1.58;;;19.90;33.90;;;;;;5112779;28;20031;-56
2024/01/27 06:09:38;;;;;;;2.92;1.58;;;19.90;33.90;;;;;;5113812;28;20038;-59
2024/01/27 06:12:04;;;;;;;2.55;1.40;;;19.80;33.90;;;;;;5113778;28;20019;-59
2024/01/27 06:14:30;;;;;;;3.20;1.40;;;19.90;33.90;;;;;;5116432;28;20434;-59
2024/01/27 06:16:56;;;;;;;3.90;1.80;;;19.80;33.90;;;;;;5117154;28;20060;-59
2024/01/27 06:19:22;;;;;;;3.78;1.80;;;19.80;33.90;;;;;;5116660;28;20035;-59
2024/01/27 06:21:48;;;;;;;3.60;1.83;;;19.80;33.80;;;;;;5116922;28;20239;-60
2024/01/27 06:24:14;;;;;;;4.55;1.80;;;19.80;33.80;;;;;;5117873;28;20041;-59
2024/01/27 06:26:39;;;;;;;3.38;1.50;;;19.80;33.90;;;;;;5118000;28;20110;-59
2024/01/27 06:29:05;;;;;;;4.85;1.63;;;19.80;33.80;;;;;;5117029;28;20054;-58
2024/01/27 06:31:31;;;;;;;3.38;1.65;;;19.80;34.50;;;;;;5117306;28;20450;-59
2024/01/27 06:33:57;;;;;;;4.53;1.77;;;19.80;33.80;;;;;;5117578;28;20115;-57
2024/01/27 06:36:24;;;;;;;3.45;1.63;;;19.80;33.80;;;;;;5117136;28;20030;-59
2024/01/27 06:38:51;;;;;;;3.80;1.80;;;19.80;33.80;;;;;;5116847;28;20031;-57
2024/01/27 06:41:17;;;;;;;3.80;1.73;;;19.80;33.80;;;;;;5114514;28;20459;-57
2024/01/27 06:43:43;;;;;;;2.65;1.20;;;19.80;33.80;;;;;;5117316;28;20062;-59
2024/01/27 06:46:08;;;;;;;3.80;1.80;;;19.80;33.90;;;;;;5117307;28;20434;-59
2024/01/27 06:48:34;;;;;;;3.63;1.67;;;19.70;34.40;;;;;;5117096;28;20049;-59
2024/01/27 06:51:00;;;;;;;3.20;1.60;;;19.80;33.90;;;;;;5116598;28;20128;-56
2024/01/27 06:53:26;;;;;;;4.68;1.95;;;19.80;33.90;;;;;;5116696;28;20442;-56
2024/01/27 06:55:52;;;;;;;3.33;2.08;;;19.80;33.90;;;;;;5098811;28;20031;-58
2024/01/27 06:58:18;;;;;;;4.55;1.45;;;19.80;33.90;;;;;;5117416;28;20023;-58
2024/01/27 07:00:44;;;;;;;3.92;1.60;;;19.70;33.80;;;;;;5117008;28;20509;-59
2024/01/27 07:03:11;;;;;;;2.22;1.48;;;19.70;33.80;;;;;;5116707;28;20508;-58
2024/01/27 07:05:40;;;;;;;2.65;1.45;;;19.70;33.80;;;;;;5115855;28;20032;-60
2024/01/27 07:08:07;;;;;;;3.15;1.75;;;19.70;33.80;;;;;;5115521;28;20031;-59
2024/01/27 07:10:36;;;;;;;4.18;1.58;;;19.70;33.80;;;;;;5117070;28;20118;-60
2024/01/27 07:13:02;;;;;;;3.45;1.40;;;19.70;33.80;;;;;;5116702;28;20030;-60
2024/01/27 07:15:28;;;;;;;3.15;1.70;;;19.70;33.80;;;;;;5116334;28;20023;-58
2024/01/27 07:17:54;;;;;;;3.72;1.80;;;19.70;33.80;;;;;;5116248;28;20079;-59
2024/01/27 07:20:24;;;;;;;4.25;1.80;;;19.70;33.80;;;;;;5116160;28;20016;-57
2024/01/27 07:22:50;;;;;;;3.53;1.65;;;19.70;33.80;;;;;;5114806;28;20085;-59
2024/01/27 07:25:16;;;;;;;3.97;1.67;;;19.70;33.80;;;;;;5114140;28;20380;-59
2024/01/27 07:27:41;;;;;;;2.58;1.33;;;19.70;34.00;;;;;;5115517;28;20046;-60
2024/01/27 07:30:11;;;;;;;3.72;1.67;;;19.70;34.00;;;;;;5115724;28;20039;-59
2024/01/27 07:32:37;;;;;;;3.30;1.67;;;19.70;34.00;;;;;;5115254;28;20377;-60
2024/01/27 07:35:03;;;;;;;3.92;1.70;;;19.70;34.00;;;;;;5114552;28;20028;-58
2024/01/27 07:37:28;;;;;;;3.42;1.70;;;19.70;34.00;;;;;;5115243;28;20110;-60
2024/01/27 07:39:54;;;;;;;5.53;1.83;;;19.70;34.00;;;;;;5115146;28;20031;-58
2024/01/27 07:42:20;;;;;;;4.07;1.95;;;19.60;33.90;;;;;;5114593;28;20040;-59
2024/01/27 07:44:46;;;;;;;3.85;1.65;;;19.70;33.90;;;;;;5114982;28;20039;-64
2024/01/27 07:47:11;;;;;;;5.03;2.10;;;19.70;34.00;;;;;;5115785;28;20381;-58
2024/01/27 07:49:37;;;;;;;3.10;1.50;;;19.70;34.00;;;;;;5115514;28;20040;-59
2024/01/27 07:52:03;;;;;;;3.47;1.63;;;19.60;33.90;;;;;;5098197;28;20038;-57
2024/01/27 07:54:29;;;;;;;3.05;1.50;;;19.60;33.90;;;;;;5114954;28;20033;-56
2024/01/27 07:56:55;;;;;;;4.35;1.83;;;19.70;33.90;;;;;;5115232;28;20347;-59
2024/01/27 07:59:21;;;;;;;4.18;1.70;;;19.60;33.90;;;;;;5096722;28;20024;-59
2024/01/27 08:01:47;;;;;;;3.70;1.70;;;19.60;33.80;;;;;;5115907;28;20027;-58
2024/01/27 08:04:13;;;;;;;3.83;1.70;;;19.60;33.80;;;;;;5115513;28;20059;-58
2024/01/27 08:06:49;;;;;;;3.45;1.60;;;19.70;33.90;;;;;;5112506;28;20082;-56
2024/01/27 08:09:15;;;;;;;3.50;1.85;;;19.60;33.80;;;;;;5114043;28;20036;-59
2024/01/27 08:11:41;;;;;;;4.03;1.70;;;19.60;34.00;;;;;;5114953;28;20428;-58
2024/01/27 08:14:07;;;;;;;3.95;1.63;;;19.60;34.00;;;;;;5115068;28;20114;-55
2024/01/27 08:16:33;;;;;;;2.97;1.60;;;19.60;34.00;;;;;;5114752;28;20024;-57
2024/01/27 08:18:59;;;;;;;4.03;1.88;;;19.60;34.00;;;;;;5114264;28;20031;-57
2024/01/27 08:21:25;;;;;;;4.15;1.63;;;19.70;34.10;;;;;;5114897;28;20444;-54
2024/01/27 08:23:50;;;;;;;2.65;1.65;;;19.60;34.10;;;;;;5114034;28;20034;-58
2024/01/27 08:26:18;;;;;;;4.00;1.60;;;19.60;34.20;;;;;;5095610;28;20031;-58
2024/01/27 08:28:44;;;;;;;2.58;1.30;;;19.60;34.30;;;;;;5128964;27;20024;-58
2024/01/27 08:31:10;;;;;;;3.67;1.50;;;19.70;34.50;;;;;;5113511;28;20584;-58
2024/01/27 08:33:35;;;;;;;3.20;1.75;;;19.70;34.60;;;;;;5113440;28;20099;-56
2024/01/27 08:36:01;;;;;;;4.22;1.70;;;19.80;34.70;;;;;;5113790;28;20020;-57
2024/01/27 08:38:27;;;;;;;5.07;1.60;;;19.80;34.70;;;;;;5113480;28;20023;-57
2024/01/27 08:40:53;;;;;;;4.25;1.58;;;19.90;34.70;;;;;;5113176;28;20035;-60
2024/01/27 08:43:19;;;;;;;3.90;1.48;;;20.00;34.60;;;;;;5113379;28;20036;-54
2024/01/27 08:45:45;;;;;;;4.93;1.80;;;20.10;34.70;;;;;;5113187;28;20477;-57
2024/01/27 08:48:11;;;;;;;3.05;1.70;;;20.10;34.70;;;;;;5113364;28;20523;-57
2024/01/27 08:50:37;;;;;;;4.85;1.70;;;20.20;34.80;;;;;;5112999;28;20563;-58
2024/01/27 08:53:03;;;;;;;4.70;2.03;;;20.30;34.90;;;;;;5113683;28;20030;-57
2024/01/27 08:55:29;;;;;;;4.30;1.75;;;20.40;35.00;;;;;;5113335;28;20490;-55
2024/01/27 08:57:56;;;;;;;3.42;1.90;;;20.40;35.00;;;;;;5113205;28;20024;-54
2024/01/27 09:00:21;;;;;;;3.97;1.80;;;20.50;34.90;;;;;;5112364;28;20032;-57
2024/01/27 09:02:47;;;;;;;4.45;1.58;;;20.50;34.80;;;;;;5113195;28;20069;-57
2024/01/27 09:05:13;;;;;;;4.85;2.13;;;20.60;34.70;;;;;;5113291;28;20114;-58
2024/01/27 09:07:39;;;;;;;6.35;2.25;;;20.60;34.60;;;;;;5095300;28;20476;-57
2024/01/27 09:10:06;;;;;;;5.03;2.10;;;20.70;34.50;;;;;;5113254;28;20057;-56
2024/01/27 09:12:32;;;;;;;2.42;1.52;;;20.70;34.40;;;;;;5110638;28;20450;-56
2024/01/27 09:14:58;;;;;;;3.35;1.80;;;20.80;34.30;;;;;;5113088;28;20015;-49
2024/01/27 09:17:24;;;;;;;5.38;1.75;;;20.90;34.30;;;;;;5112474;28;20023;-56
2024/01/27 09:19:50;;;;;;;4.30;2.10;;;20.90;34.10;;;;;;5112815;28;20024;-55
2024/01/27 09:22:16;;;;;;;4.65;2.15;;;21.00;34.10;;;;;;5112950;28;20050;-56
2024/01/27 09:24:42;;;;;;;3.85;1.85;;;21.00;34.00;;;;;;5112765;28;20043;-56
2024/01/27 09:27:08;;;;;;;3.88;1.95;;;21.10;34.00;;;;;;5112589;28;20028;-56
2024/01/27 09:29:34;;;;;;;4.22;1.98;;;21.10;34.10;;;;;;5112662;28;20121;-56
2024/01/27 09:31:59;;;;;;;5.20;1.70;;;21.20;34.20;;;;;;5112555;28;20027;-57
2024/01/27 09:34:27;;;;;;;4.38;2.00;;;21.20;34.10;;;;;;5113655;28;20019;-56
2024/01/27 09:36:53;;;;;;;5.00;2.05;;;21.20;34.00;;;;;;5113563;28;20084;-55
2024/01/27 09:39:18;;;;;;;4.63;2.08;;;21.20;34.00;;;;;;5112576;28;20168;-56
2024/01/27 09:41:45;;;;;;;4.32;2.38;;;21.30;34.00;;;;;;5088247;28;20039;-54
2024/01/27 09:44:12;;;;;;;3.85;1.88;;;21.30;33.90;;;;;;5092257;28;20496;-57
2024/01/27 09:46:38;;;;;;;4.80;1.90;;;21.30;33.80;;;;;;5093713;28;20089;-55
2024/01/27 09:49:05;;;;;;;3.80;1.73;;;21.30;33.80;;;;;;5091629;28;20044;-56
2024/01/27 09:51:31;;;;;;;3.85;1.88;;;21.30;33.70;;;;;;5092016;28;20027;-55
2024/01/27 09:53:57;;;;;;;4.40;1.63;;;21.30;33.60;;;;;;5091260;28;20115;-54
2024/01/27 09:56:23;;;;;;;4.80;1.75;;;21.30;33.60;;;;;;5091678;28;20027;-51
2024/01/27 09:58:50;;;;;;;3.67;1.80;;;21.30;33.50;;;;;;5091471;28;20043;-52
2024/01/27 10:01:19;;;;;;;4.63;2.17;;;21.30;33.50;;;;;;5091081;28;20020;-55
2024/01/27 10:03:46;;;;;;;3.35;1.70;;;21.30;33.40;;;;;;5092123;28;20024;-55
2024/01/27 10:06:12;;;;;;;4.05;1.85;;;21.30;33.30;;;;;;5091408;28;20032;-61
2024/01/27 10:08:38;;;;;;;3.58;1.90;;;21.30;33.20;;;;;;5088749;28;20025;-56
2024/01/27 10:11:07;;;;;;;3.88;1.75;;;21.30;33.20;;;;;;5092206;28;20142;-56
2024/01/27 10:13:33;;;;;;;3.78;1.98;;;21.30;33.20;;;;;;5092788;28;20405;-57
2024/01/27 10:16:06;;;;;;;5.40;1.95;;;21.30;33.20;;;;;;5091647;28;20477;-54
2024/01/27 10:18:33;;;;;;;3.15;1.70;;;21.30;33.20;;;;;;5092145;28;20047;-57
2024/01/27 10:20:59;;;;;;;3.60;1.85;;;21.30;33.20;;;;;;5091493;28;20036;-56
2024/01/27 10:23:25;;;;;;;4.10;1.88;;;21.30;33.20;;;;;;5090609;28;20027;-57
2024/01/27 10:25:52;;;;;;;4.00;1.98;;;21.30;33.20;;;;;;5091229;28;20109;-53
2024/01/27 10:28:18;;;;;;;4.22;1.88;;;21.30;33.20;;;;;;5091959;28;20052;-53
2024/01/27 10:30:45;;;;;;;3.03;1.63;;;21.20;33.20;;;;;;5090889;28;20046;-54
2024/01/27 10:33:14;;;;;;;5.05;2.25;;;21.20;33.20;;;;;;5091759;28;20443;-53
2024/01/27 10:35:43;;;;;;;3.25;2.03;;;21.20;33.20;;;;;;5091853;28;20060;-56
2024/01/27 10:38:09;;;;;;;3.33;1.83;;;21.20;33.20;;;;;;5073620;28;20058;-52
2024/01/27 10:40:37;;;;;;;3.88;2.03;;;21.20;33.30;;;;;;5090808;28;20048;-56
2024/01/27 10:43:03;;;;;;;3.78;1.75;;;21.20;33.30;;;;;;5090922;28;20101;-52
2024/01/27 10:45:40;;;;;;;4.28;2.25;;;21.20;33.30;;;;;;5069820;28;20039;-57
2024/01/27 10:48:10;;;;;;;5.00;2.30;;;21.20;33.30;;;;;;5090862;28;20375;-54
2024/01/27 10:50:38;;;;;;;3.85;2.03;;;21.20;33.40;;;;;;5091248;28;20127;-56
2024/01/27 10:53:07;;;;;;;4.68;2.80;;;21.10;33.40;;;;;;5091444;28;20106;-53
2024/01/27 10:55:35;;;;;;;4.85;1.77;;;21.10;33.40;;;;;;5091258;28;20486;-52
2024/01/27 10:58:02;;;;;;;5.50;1.90;;;21.10;33.40;;;;;;5091334;28;20024;-52
2024/01/27 11:00:30;;;;;;;4.43;1.70;;;21.10;33.50;;;;;;5091666;28;20041;-56
2024/01/27 11:03:01;;;;;;;3.38;1.67;;;21.10;33.40;;;;;;5095258;28;20034;-52
2024/01/27 11:05:31;;;;;;;3.20;1.83;;;21.10;33.50;;;;;;5092513;28;20050;-52
2024/01/27 11:07:59;;;;;;;3.70;1.70;;;21.10;33.50;;;;;;5094036;28;20096;-55
2024/01/27 11:10:26;;;;;;;2.95;1.60;;;21.10;33.50;;;;;;5095970;28;20046;-54
2024/01/27 11:12:55;;;;;;;3.28;1.70;;;21.10;33.50;;;;;;5094896;28;20039;-55
2024/01/27 11:15:21;;;;;;;3.90;1.70;;;21.10;33.50;;;;;;5094968;28;20032;-54
2024/01/27 11:17:48;;;;;;;4.15;1.40;;;21.10;33.50;;;;;;5094497;28;20032;-57
2024/01/27 11:20:16;;;;;;;2.97;1.48;;;21.10;33.60;;;;;;5094743;28;20384;-55
2024/01/27 11:22:43;;;;;;;5.90;2.10;;;21.10;33.60;;;;;;5095339;28;20024;-55
2024/01/27 11:25:12;;;;;;;3.75;1.77;;;21.10;33.60;;;;;;5095775;28;20038;-55
2024/01/27 11:27:43;;;;;;;3.72;1.73;;;21.10;33.60;;;;;;5095533;28;20439;-57
2024/01/27 11:30:30;;;;;;;4.53;1.75;;;21.10;33.60;;;;;;5095478;28;20063;-55
2024/01/27 11:33:00;;;;;;;4.05;1.60;;;21.10;33.60;;;;;;5092646;28;20032;-56
2024/01/27 11:35:26;;;;;;;4.63;1.80;;;21.10;33.70;;;;;;5095481;28;20028;-55
2024/01/27 11:37:52;;;;;;;3.80;1.77;;;21.10;33.70;;;;;;5093636;28;20533;-58
2024/01/27 11:40:18;;;;;;;3.25;1.67;;;21.10;33.70;;;;;;5094432;28;20031;-58
2024/01/27 11:42:56;;;;;;;6.88;2.25;;;21.10;34.10;;;;;;5094653;28;20117;-56
2024/01/27 11:45:22;;;;;;;5.13;1.77;;;21.10;34.30;;;;;;5107289;28;20146;-56
2024/01/27 11:47:49;;;;;;;6.30;2.78;;;21.20;34.30;;;;;;5094179;28;20103;-56
2024/01/27 11:50:18;;;;;;;6.28;2.25;;;21.20;34.20;;;;;;5094051;28;20032;-56
2024/01/27 11:52:44;;;;;;;5.68;2.13;;;21.20;34.20;;;;;;5091597;28;20024;-53
2024/01/27 11:55:10;;;;;;;4.78;2.38;;;21.20;34.10;;;;;;5093617;28;20442;-56
2024/01/27 11:57:36;;;;;;;3.45;1.98;;;21.20;34.10;;;;;;5093381;28;20028;-58
2024/01/27 12:00:01;;;;;;;6.22;2.40;;;21.20;34.10;;;;;;5094069;28;20558;-55
2024/01/27 12:02:27;;;;;;;4.75;1.90;;;21.20;34.00;;;;;;5093871;28;20020;-55
2024/01/27 12:04:54;;;;;;;4.63;1.90;;;21.20;34.00;;;;;;5075524;28;20074;-56
2024/01/27 12:07:21;;;;;;;4.22;2.17;;;21.20;33.90;;;;;;5093797;28;20393;-56
2024/01/27 12:09:49;;;;;;;4.43;1.90;;;21.20;33.90;;;;;;5094673;28;20093;-56
2024/01/27 12:12:16;;;;;;;6.28;2.38;;;21.20;33.90;;;;;;5093235;28;20039;-54
2024/01/27 12:14:49;;;;;;;4.35;1.80;;;21.20;33.80;;;;;;5093324;28;20028;-56
2024/01/27 12:17:16;;;;;;;5.80;1.90;;;21.20;33.80;;;;;;5093017;28;20107;-55
2024/01/27 12:19:48;;;;;;;2.80;1.70;;;21.20;33.80;;;;;;5093295;28;20059;-56
2024/01/27 12:22:29;;;;;;;2.80;1.80;;;21.20;33.80;;;;;;5093173;28;20039;-57
2024/01/27 12:25:07;;;;;;;5.03;1.98;;;21.20;33.90;;;;;;5093222;28;20028;-56
2024/01/27 12:27:33;;;;;;;7.03;2.15;;;21.20;34.20;;;;;;5092768;28;20035;-56
2024/01/27 12:30:01;;;;;;;4.80;1.75;;;21.20;34.50;;;;;;5094921;28;20036;-54
2024/01/27 12:32:26;;;;;;;3.85;1.80;;;21.20;34.60;;;;;;5094670;28;20359;-55
2024/01/27 12:34:52;;;;;;;4.00;1.55;;;21.20;34.80;;;;;;5094539;28;20028;-56
2024/01/27 12:37:21;;;;;;;3.45;1.40;;;21.30;35.00;;;;;;5094979;28;20047;-54
2024/01/27 12:39:50;;;;;;;4.10;1.48;;;21.20;35.00;;;;;;5094363;28;20470;-56
2024/01/27 12:42:17;;;;;;;5.05;1.65;;;21.30;35.20;;;;;;5094071;28;20036;-57
2024/01/27 12:44:43;;;;;;;5.45;1.70;;;21.30;35.20;;;;;;5094270;28;20043;-57